Coates, United Kingdom
Current Conditions -  °F | °C
As of 10:58 AM on Sunday 21 Dec 2014 (Local Time) from EGVA Reporting Station
Light Rain Light Rain  
Wind Chill: 39°   Ceiling: 500
Heat Index: 46°   Visibility: 6mi
Dew Point: 45°   Wind: 14mph
Humidity: 99%   Direction: 240°WSW
Pressure: 30.32"   Gusts: NA
Location:  51.71°N, 2.03°W
Report Text: EGVA 211058Z AUTO 24012KT 9000 -RA BR OVC005 08/07 A3032 RMK AO2 RAE0959B1014DZB0959E1014B1033E1040 SLP274 P0000 T00750074
Loading
Personal Weather Stations






























Interactive Weather Map New forecast layout! Learn more

10-Day Weather Forecast

Advertisements
Track Severe Weather on mobile